Terminal Aerodrome Forecast
Issued by NWS

Home | Current Version | Previous Version | Text Only | Print | Product List | Glossary On
Versions: 1 2 3 4 5 6 7 8 9 10 11 12 13 14 15 16 17 18
000
FTUS43 KOAX 292114 AAA
TAFSNY
TAF AMD
KSNY 292114Z 2921/3018 33015G22KT P6SM -RA VCTS BKN007 OVC020CB
     FM300100 02010KT P6SM OVC015
     FM300600 VRB05KT 1SM BR BKN004=

USA.gov is the U.S. government's official web portal to all federal, state and local government web resources and services.